Time;durP1;ratioP1;P1;durP2;ratioP2;P2;SDS_P1;SDS_P2;PMS_P1;PMS_P2;Temp;Humidity;BMP_temperature;BMP_pressure;BME280_temperature;BME280_humidity;BME280_pressure;Samples;Min_cycle;Max_cycle;Signal;HPM_P1;HPM_P2
2024/04/07 00:00:01;;;;;;;;;2.00;2.00;;;;;21.06;100.00;100681.53;2077038;28;46645;-63
2024/04/07 00:01:01;;;;;;;;;3.00;2.00;;;;;21.07;100.00;100678.75;2082919;28;47313;-62
2024/04/07 00:02:03;;;;;;;;;2.33;2.00;;;;;21.08;100.00;100677.78;2075694;28;47040;-64
2024/04/07 00:03:03;;;;;;;;;2.00;2.00;;;;;21.09;100.00;100678.66;2076755;28;46535;-63
2024/04/07 00:04:04;;;;;;;;;3.00;3.00;;;;;21.10;100.00;100678.56;2077534;28;46135;-63
2024/04/07 00:05:04;;;;;;;;;2.00;2.00;;;;;21.08;100.00;100666.97;2077356;28;47048;-64
2024/04/07 00:06:05;;;;;;;;;4.00;2.00;;;;;21.08;100.00;100664.28;2075157;28;46166;-63
2024/04/07 00:07:05;;;;;;;;;1.00;0.67;;;;;21.05;100.00;100652.84;2080493;28;46649;-62
2024/04/07 00:08:05;;;;;;;;;3.00;2.00;;;;;21.04;100.00;100665.47;2078756;28;46954;-63
2024/04/07 00:09:06;;;;;;;;;2.00;1.00;;;;;21.03;100.00;100655.63;2081500;28;46834;-63
2024/04/07 00:10:06;;;;;;;;;2.00;2.00;;;;;21.01;100.00;100660.28;2072900;28;47301;-63
2024/04/07 00:11:07;;;;;;;;;1.67;0.67;;;;;21.01;100.00;100657.56;2071732;28;46799;-62
2024/04/07 00:12:10;;;;;;;;;1.25;1.25;;;;;21.07;100.00;100661.69;2072556;28;46633;-63
2024/04/07 00:13:10;;;;;;;;;2.25;1.25;;;;;20.95;100.00;100681.38;2080184;28;46730;-63
2024/04/07 00:14:11;;;;;;;;;1.00;1.00;;;;;20.92;100.00;100687.84;2080478;28;45975;-62
2024/04/07 00:15:11;;;;;;;;;1.33;1.33;;;;;20.99;100.00;100699.97;2072594;28;46789;-61
2024/04/07 00:16:12;;;;;;;;;3.00;1.67;;;;;21.00;100.00;100708.94;2073607;28;46250;-63
2024/04/07 00:17:12;;;;;;;;;1.67;0.67;;;;;20.99;100.00;100702.69;2073673;28;45773;-62
2024/04/07 00:18:13;;;;;;;;;0.00;0.00;;;;;20.99;100.00;100705.38;2064964;28;46819;-64
2024/04/07 00:19:13;;;;;;;;;0.67;0.67;;;;;20.98;100.00;100697.38;2066741;28;46621;-64
2024/04/07 00:20:14;;;;;;;;;0.00;0.00;;;;;20.98;100.00;100694.69;2075799;28;46421;-63
2024/04/07 00:21:14;;;;;;;;;0.75;0.75;;;;;20.98;100.00;100686.59;2080109;28;46358;-64
2024/04/07 00:22:15;;;;;;;;;0.00;0.00;;;;;20.98;100.00;100694.69;2079889;28;46272;-63
2024/04/07 00:23:15;;;;;;;;;3.00;1.00;;;;;20.98;100.00;100697.38;2081213;28;45784;-63
2024/04/07 00:24:16;;;;;;;;;1.00;1.00;;;;;20.98;100.00;100706.34;2071868;28;46426;-63
2024/04/07 00:25:19;;;;;;;;;0.00;0.00;;;;;20.97;100.00;100693.81;2072333;28;46714;-64
2024/04/07 00:26:20;;;;;;;;;0.75;0.00;;;;;20.98;100.00;100705.50;2073455;28;46639;-63
2024/04/07 00:27:20;;;;;;;;;0.00;0.00;;;;;21.01;100.00;100714.22;2069323;28;46913;-64
2024/04/07 00:28:21;;;;;;;;;0.33;0.00;;;;;21.03;100.00;100722.22;2072194;28;46635;-64
2024/04/07 00:29:21;;;;;;;;;1.67;1.00;;;;;21.02;100.00;100705.16;2079750;28;46878;-63
2024/04/07 00:30:21;;;;;;;;;0.00;0.00;;;;;21.03;100.00;100704.19;2080938;28;45463;-63
2024/04/07 00:31:22;;;;;;;;;0.33;0.33;;;;;21.08;100.00;100699.34;2080894;28;46171;-63
2024/04/07 00:32:22;;;;;;;;;0.00;0.00;;;;;20.98;100.00;100706.34;2080066;28;45813;-62
2024/04/07 00:33:22;;;;;;;;;1.00;0.00;;;;;20.97;100.00;100725.34;2070943;28;46369;-63
2024/04/07 00:34:23;;;;;;;;;0.00;0.00;;;;;20.92;100.00;100717.53;2070973;28;46642;-63
2024/04/07 00:35:23;;;;;;;;;0.00;0.00;;;;;20.93;100.00;100723.78;2080338;28;46710;-64
2024/04/07 00:36:23;;;;;;;;;1.00;1.00;;;;;20.93;100.00;100723.78;2062891;28;45574;-64
2024/04/07 00:37:28;;;;;;;;;0.75;0.75;;;;;20.91;100.00;100701.44;2062518;28;46641;-64
2024/04/07 00:38:30;;;;;;;;;0.00;0.00;;;;;20.91;100.00;100702.31;2079601;28;46582;-63
2024/04/07 00:39:31;;;;;;;;;0.00;0.00;;;;;20.93;100.00;100697.66;2080430;28;46731;-64
2024/04/07 00:40:31;;;;;;;;;0.00;0.00;;;;;20.93;100.00;100696.81;2080149;28;46196;-62
2024/04/07 00:41:32;;;;;;;;;0.00;0.00;;;;;20.91;100.00;100701.44;2080745;28;46872;-64
2024/04/07 00:42:32;;;;;;;;;0.00;0.00;;;;;20.89;100.00;100697.97;2077803;28;46578;-64
2024/04/07 00:43:32;;;;;;;;;0.00;0.00;;;;;20.89;100.00;100701.53;2080737;28;46536;-64
2024/04/07 00:44:33;;;;;;;;;0.00;0.00;;;;;20.86;100.00;100709.84;2083371;28;46675;-63
2024/04/07 00:45:33;;;;;;;;;0.33;0.33;;;;;20.81;100.00;100703.84;2080386;28;46056;-62
2024/04/07 00:46:33;;;;;;;;;0.00;0.00;;;;;20.83;100.00;100700.13;2080336;28;46591;-64
2024/04/07 00:47:34;;;;;;;;;1.00;0.00;;;;;20.82;100.00;100692.97;2079537;28;46674;-62
2024/04/07 00:48:34;;;;;;;;;0.00;0.00;;;;;20.79;100.00;100700.41;2079784;28;47337;-63
2024/04/07 00:49:35;;;;;;;;;0.00;0.00;;;;;20.85;100.00;100708.97;2078260;28;46580;-63
2024/04/07 00:50:36;;;;;;;;;1.67;0.00;;;;;20.85;100.00;100700.88;2079695;28;46764;-62
2024/04/07 00:51:37;;;;;;;;;0.00;0.00;;;;;20.86;100.00;100708.00;2079886;28;46907;-63
2024/04/07 00:52:38;;;;;;;;;0.00;0.00;;;;;20.89;100.00;100704.25;2080465;28;46616;-63
2024/04/07 00:53:38;;;;;;;;;0.00;0.00;;;;;20.85;100.00;100695.50;2080102;28;46414;-64
2024/04/07 00:54:41;;;;;;;;;0.00;0.00;;;;;20.83;100.00;100700.13;2080201;28;46887;-63
2024/04/07 00:55:43;;;;;;;;;0.00;0.00;;;;;20.88;100.00;100697.13;2079846;28;46444;-63
2024/04/07 00:56:43;;;;;;;;;0.00;0.00;;;;;20.88;100.00;100699.81;2078901;28;45681;-63
2024/04/07 00:57:44;;;;;;;;;0.00;0.00;;;;;20.87;100.00;100692.69;2080133;28;46789;-63
2024/04/07 00:58:45;;;;;;;;;0.00;0.00;;;;;20.88;100.00;100690.84;2080547;28;46602;-64
2024/04/07 00:59:46;;;;;;;;;0.00;0.00;;;;;20.81;100.00;100684.97;2080005;28;47349;-63
2024/04/07 01:00:46;;;;;;;;;0.00;0.00;;;;;20.77;100.00;100680.75;2080877;28;46532;-63
2024/04/07 01:01:47;;;;;;;;;0.00;0.00;;;;;20.76;100.00;100669.09;2080073;28;46121;-63
2024/04/07 01:02:47;;;;;;;;;1.00;0.00;;;;;20.74;100.00;100678.25;2080142;28;46352;-63
2024/04/07 01:03:47;;;;;;;;;0.00;0.00;;;;;20.77;100.00;100659.19;2071582;28;46335;-63
2024/04/07 01:04:48;;;;;;;;;0.00;0.00;;;;;20.81;100.00;100669.66;2071760;28;46885;-63
2024/04/07 01:05:49;;;;;;;;;0.00;0.00;;;;;20.82;100.00;100671.38;2078065;28;46341;-64
2024/04/07 01:06:49;;;;;;;;;0.00;0.00;;;;;20.83;100.00;100680.34;2078889;28;46778;-64
2024/04/07 01:07:49;;;;;;;;;0.00;0.00;;;;;20.82;100.00;100671.38;2080168;28;46133;-64
2024/04/07 01:08:53;;;;;;;;;0.00;0.00;;;;;20.84;100.00;100664.09;2080460;28;46595;-63
2024/04/07 01:09:54;;;;;;;;;0.00;0.00;;;;;20.83;100.00;100665.06;2080227;28;46794;-63
2024/04/07 01:10:55;;;;;;;;;0.00;0.00;;;;;20.85;100.00;100662.25;2077533;28;45586;-63
2024/04/07 01:11:55;;;;;;;;;0.67;0.00;;;;;20.85;100.00;100667.66;2079217;28;47045;-64
2024/04/07 01:12:55;;;;;;;;;0.00;0.00;;;;;20.85;100.00;100663.13;2080018;28;46967;-63
2024/04/07 01:13:56;;;;;;;;;0.00;0.00;;;;;20.85;100.00;100664.94;2062282;28;46196;-64
2024/04/07 01:14:56;;;;;;;;;1.33;0.00;;;;;20.84;100.00;100669.47;2062871;28;46337;-63
2024/04/07 01:15:56;;;;;;;;;0.00;0.00;;;;;20.83;100.00;100673.16;2077013;28;46033;-63
2024/04/07 01:16:57;;;;;;;;;0.00;0.00;;;;;20.82;100.00;100679.47;2080042;28;46568;-63
2024/04/07 01:17:57;;;;;;;;;0.00;0.00;;;;;20.84;100.00;100668.63;2080107;28;46652;-63
2024/04/07 01:18:57;;;;;;;;;0.00;0.00;;;;;20.82;100.00;100673.22;2082853;28;46401;-63
2024/04/07 01:19:59;;;;;;;;;0.00;0.00;;;;;20.81;100.00;100677.75;2080731;28;46292;-63
2024/04/07 01:20:59;;;;;;;;;0.00;0.00;;;;;20.80;100.00;100680.56;2077142;28;46832;-63
2024/04/07 01:22:00;;;;;;;;;0.00;0.00;;;;;20.79;100.00;100674.28;2079270;28;46006;-63
2024/04/07 01:23:01;;;;;;;;;0.00;0.00;;;;;20.79;100.00;100654.53;2078348;28;46885;-64
2024/04/07 01:24:02;;;;;;;;;0.00;0.00;;;;;20.79;100.00;100662.63;2079610;28;46631;-64
2024/04/07 01:25:03;;;;;;;;;0.00;0.00;;;;;20.78;100.00;100652.81;2071173;28;46171;-65
2024/04/07 01:26:03;;;;;;;;;0.00;0.00;;;;;20.74;100.00;100660.25;2071675;28;46824;-62
2024/04/07 01:27:03;;;;;;;;;0.00;0.00;;;;;20.74;100.00;100660.25;2079535;28;46433;-64
2024/04/07 01:28:05;;;;;;;;;0.00;0.00;;;;;20.75;100.00;100659.28;2072238;28;46581;-64
2024/04/07 01:29:06;;;;;;;;;0.00;0.00;;;;;20.75;100.00;100655.72;2078161;28;46416;-63
2024/04/07 01:30:07;;;;;;;;;0.00;0.00;;;;;20.73;100.00;100647.72;2079990;28;46455;-63
2024/04/07 01:31:07;;;;;;;;;0.00;0.00;;;;;20.75;100.00;100655.72;2080131;28;45094;-63
2024/04/07 01:32:08;;;;;;;;;0.00;0.00;;;;;20.75;100.00;100650.31;2079698;28;46332;-63
2024/04/07 01:33:10;;;;;;;;;0.00;0.00;;;;;20.76;100.00;100652.91;2086687;28;46508;-64
2024/04/07 01:34:10;;;;;;;;;0.50;0.50;;;;;20.78;100.00;100664.47;2080105;28;46686;-63
2024/04/07 01:35:11;;;;;;;;;0.00;0.00;;;;;20.77;100.00;100656.47;2079879;28;46561;-63
2024/04/07 01:36:11;;;;;;;;;0.00;0.00;;;;;20.76;100.00;100655.63;2080512;28;46934;-64
2024/04/07 01:37:11;;;;;;;;;0.00;0.00;;;;;20.76;100.00;100647.53;2072268;28;46511;-62
2024/04/07 01:38:12;;;;;;;;;0.00;0.00;;;;;20.76;100.00;100646.66;2071227;28;45709;-63
2024/04/07 01:39:13;;;;;;;;;0.00;0.00;;;;;20.75;100.00;100651.19;2077946;28;46499;-64
2024/04/07 01:40:14;;;;;;;;;0.00;0.00;;;;;20.73;100.00;100647.72;2079837;28;47016;-64
2024/04/07 01:41:14;;;;;;;;;0.00;0.00;;;;;20.72;100.00;100642.44;2078583;28;46547;-64
2024/04/07 01:42:14;;;;;;;;;0.00;0.00;;;;;20.70;100.00;100656.00;2080187;28;46832;-63
2024/04/07 01:43:15;;;;;;;;;1.33;0.33;;;;;20.70;100.00;100660.53;2079578;28;46594;-63
2024/04/07 01:44:15;;;;;;;;;0.00;0.00;;;;;20.68;100.00;100651.69;2080230;28;46634;-63
2024/04/07 01:45:15;;;;;;;;;0.00;0.00;;;;;20.67;100.00;100649.94;2079956;28;46486;-63
2024/04/07 01:46:16;;;;;;;;;0.67;0.00;;;;;20.67;100.00;100656.22;2079891;28;46201;-64
2024/04/07 01:47:16;;;;;;;;;0.00;0.00;;;;;20.66;100.00;100656.31;2070968;28;46507;-64
2024/04/07 01:48:16;;;;;;;;;0.00;0.00;;;;;20.67;100.00;100639.16;2062862;28;44958;-64
2024/04/07 01:49:17;;;;;;;;;0.00;0.00;;;;;20.63;100.00;100646.59;2054415;28;45525;-63
2024/04/07 01:50:17;;;;;;;;;0.00;0.00;;;;;20.68;100.00;100644.44;2054782;28;45934;-64
2024/04/07 01:51:17;;;;;;;;;0.00;0.00;;;;;20.68;100.00;100654.38;2075237;28;47770;-64
2024/04/07 01:52:18;;;;;;;;;0.00;0.00;;;;;20.70;100.00;100650.59;2080637;28;46700;-62
2024/04/07 01:53:18;;;;;;;;;0.33;0.00;;;;;20.71;100.00;100648.78;2080135;28;46760;-62
2024/04/07 01:54:18;;;;;;;;;0.00;0.00;;;;;20.72;100.00;100650.53;2078894;28;46750;-63
2024/04/07 01:55:19;;;;;;;;;0.00;0.00;;;;;20.72;100.00;100653.22;2078679;28;46329;-63
2024/04/07 01:56:19;;;;;;;;;0.00;0.00;;;;;20.73;100.00;100654.97;2075801;28;45018;-63
2024/04/07 01:57:19;;;;;;;;;2.33;0.00;;;;;20.73;100.00;100661.22;2079798;28;45566;-63
2024/04/07 01:58:21;;;;;;;;;0.00;0.00;;;;;20.73;100.00;100654.97;2078000;28;46574;-63
2024/04/07 01:59:21;;;;;;;;;0.00;0.00;;;;;20.73;100.00;100668.44;2076199;28;46593;-62
2024/04/07 02:00:22;;;;;;;;;0.00;0.00;;;;;20.73;100.00;100660.34;2078518;28;46547;-63
2024/04/07 02:01:22;;;;;;;;;0.00;0.00;;;;;20.68;100.00;100670.56;2077744;28;46604;-64
2024/04/07 02:02:23;;;;;;;;;0.00;0.00;;;;;20.65;100.00;100678.84;2071587;28;46677;-63
2024/04/07 02:03:23;;;;;;;;;0.67;0.67;;;;;20.65;100.00;100674.31;2078773;28;46772;-63
2024/04/07 02:04:24;;;;;;;;;0.00;0.00;;;;;20.67;100.00;100682.31;2079762;28;46612;-63
2024/04/07 02:05:24;;;;;;;;;0.00;0.00;;;;;20.72;100.00;100682.91;2076762;28;47211;-64
2024/04/07 02:06:25;;;;;;;;;1.00;0.00;;;;;20.71;100.00;100683.81;2076651;28;46750;-64
2024/04/07 02:07:26;;;;;;;;;0.00;0.00;;;;;20.72;100.00;100691.84;2079780;28;46569;-63
2024/04/07 02:08:26;;;;;;;;;0.00;0.00;;;;;20.73;100.00;100690.03;2079627;28;45916;-63
2024/04/07 02:09:28;;;;;;;;;0.00;0.00;;;;;20.73;100.00;100696.28;2078856;28;46850;-63
2024/04/07 02:10:29;;;;;;;;;0.00;0.00;;;;;20.74;100.00;100697.16;2079952;28;45792;-64
2024/04/07 02:11:29;;;;;;;;;0.00;0.00;;;;;20.70;100.00;100703.69;2078329;28;45548;-64
2024/04/07 02:12:33;;;;;;;;;0.00;0.00;;;;;20.72;100.00;100693.69;2079409;28;46111;-64
2024/04/07 02:13:33;;;;;;;;;0.00;0.00;;;;;20.72;100.00;100702.63;2079387;28;46991;-64
2024/04/07 02:14:34;;;;;;;;;0.00;0.00;;;;;20.72;100.00;100699.06;2062000;28;46394;-63
2024/04/07 02:15:35;;;;;;;;;1.00;0.00;;;;;20.70;100.00;100693.75;2062465;28;46555;-64
2024/04/07 02:16:35;;;;;;;;;1.25;0.75;;;;;20.71;100.00;100689.22;2079753;28;46786;-63
2024/04/07 02:17:35;;;;;;;;;0.00;0.00;;;;;20.71;100.00;100684.72;2077394;28;46183;-64
2024/04/07 02:18:36;;;;;;;;;0.00;0.00;;;;;20.68;100.00;100689.44;2079939;28;46576;-63
2024/04/07 02:19:37;;;;;;;;;0.00;0.00;;;;;20.68;100.00;100684.91;2079698;28;46634;-62
2024/04/07 02:20:37;;;;;;;;;0.00;0.00;;;;;20.66;100.00;100689.53;2076919;28;46904;-63
2024/04/07 02:21:37;;;;;;;;;0.00;0.00;;;;;20.66;100.00;100694.94;2079944;28;46688;-64
2024/04/07 02:22:38;;;;;;;;;0.00;0.00;;;;;20.65;100.00;100678.84;2070677;28;47050;-63
2024/04/07 02:23:39;;;;;;;;;0.00;0.00;;;;;20.64;100.00;100704.09;2070029;28;46096;-64
2024/04/07 02:24:39;;;;;;;;;0.00;0.00;;;;;20.68;100.00;100698.38;2079208;28;46261;-64
2024/04/07 02:25:40;;;;;;;;;0.00;0.00;;;;;20.71;100.00;100698.22;2078978;28;46957;-64
2024/04/07 02:26:40;;;;;;;;;0.00;0.00;;;;;20.72;100.00;100705.34;2078267;28;45533;-65
2024/04/07 02:27:41;;;;;;;;;0.00;0.00;;;;;20.74;100.00;100691.75;2078383;28;45797;-63
2024/04/07 02:28:41;;;;;;;;;0.00;0.00;;;;;20.76;100.00;100714.09;2079603;28;46179;-64
2024/04/07 02:29:41;;;;;;;;;0.67;0.67;;;;;20.75;100.00;100713.22;2079919;28;45704;-64
2024/04/07 02:30:42;;;;;;;;;0.00;0.00;;;;;20.71;100.00;100714.41;2079277;28;45041;-63
2024/04/07 02:31:42;;;;;;;;;0.00;0.00;;;;;20.72;100.00;100721.50;2077405;28;46299;-62
2024/04/07 02:32:43;;;;;;;;;0.00;0.00;;;;;20.68;100.00;100721.78;2078118;28;46602;-62
2024/04/07 02:33:46;;;;;;;;;0.00;0.00;;;;;20.67;100.00;100714.66;2079440;28;46275;-63
2024/04/07 02:34:46;;;;;;;;;0.00;0.00;;;;;20.66;100.00;100721.03;2079571;28;45420;-63
2024/04/07 02:35:47;;;;;;;;;0.00;0.00;;;;;20.66;100.00;100716.50;2078193;28;46356;-62
2024/04/07 02:36:47;;;;;;;;;0.00;0.00;;;;;20.65;100.00;100714.78;2070827;28;46601;-62
2024/04/07 02:37:47;;;;;;;;;0.00;0.00;;;;;20.63;100.00;100718.53;2070993;28;46456;-63
2024/04/07 02:38:47;;;;;;;;;0.00;0.00;;;;;20.63;100.00;100719.41;2079948;28;45719;-63
2024/04/07 02:39:48;;;;;;;;;0.00;0.00;;;;;20.62;100.00;100714.97;2079752;28;46392;-63
2024/04/07 02:40:48;;;;;;;;;2.00;0.00;;;;;20.63;100.00;100722.09;2079811;28;46589;-64
2024/04/07 02:41:48;;;;;;;;;1.00;0.00;;;;;20.66;100.00;100719.19;2077424;28;48458;-63
2024/04/07 02:42:52;;;;;;;;;0.00;0.00;;;;;20.69;100.00;100718.13;2079816;28;47866;-63
2024/04/07 02:43:52;;;;;;;;;0.00;0.00;;;;;20.65;100.00;100717.47;2079930;28;45136;-64
2024/04/07 02:48:48;;;;;;;;;0.00;0.00;;;;;20.51;100.00;100725.56;2077813;28;46411;-63
2024/04/07 02:49:49;;;;;;;;;0.33;0.33;;;;;20.53;100.00;100719.09;2079452;28;46281;-62
2024/04/07 02:50:49;;;;;;;;;0.00;0.00;;;;;20.52;100.00;100724.59;2070932;28;45598;-63
2024/04/07 02:51:49;;;;;;;;;0.00;0.00;;;;;20.50;100.00;100726.53;2069898;28;46625;-63
2024/04/07 02:52:50;;;;;;;;;0.00;0.00;;;;;20.48;100.00;100729.31;2080148;28;46301;-64
2024/04/07 02:53:50;;;;;;;;;0.33;0.00;;;;;20.45;100.00;100712.44;2081154;28;46346;-65
2024/04/07 02:54:50;;;;;;;;;0.33;0.33;;;;;20.42;100.00;100727.00;2080494;28;46599;-64
2024/04/07 02:55:51;;;;;;;;;0.00;0.00;;;;;20.39;100.00;100702.91;2080915;28;45295;-63
2024/04/07 02:56:51;;;;;;;;;0.00;0.00;;;;;20.38;100.00;100719.19;2080822;28;46829;-63
2024/04/07 02:57:51;;;;;;;;;0.00;0.00;;;;;20.35;100.00;100705.91;2078939;28;46147;-64
2024/04/07 02:58:51;;;;;;;;;0.00;0.00;;;;;20.29;100.00;100710.69;2081000;28;46181;-64
2024/04/07 02:59:52;;;;;;;;;0.67;0.00;;;;;20.24;100.00;100706.56;2078441;28;46789;-65
2024/04/07 03:00:52;;;;;;;;;0.00;0.00;;;;;20.26;100.00;100707.31;2084538;28;46573;-63
2024/04/07 03:01:53;;;;;;;;;0.00;0.00;;;;;20.26;100.00;100712.72;2078806;28;46592;-64
2024/04/07 03:02:54;;;;;;;;;1.00;0.00;;;;;20.20;100.00;100716.66;2080491;28;47319;-64
2024/04/07 03:03:54;;;;;;;;;0.00;0.00;;;;;20.22;100.00;100716.56;2082449;28;46048;-62
2024/04/07 03:04:55;;;;;;;;;0.00;0.00;;;;;20.26;100.00;100728.88;2080683;28;46808;-62
2024/04/07 03:05:56;;;;;;;;;0.00;0.00;;;;;20.28;100.00;100721.56;2081080;28;46319;-63
2024/04/07 03:07:00;;;;;;;;;0.00;0.00;;;;;20.26;100.00;100735.13;2071876;28;46496;-63
2024/04/07 03:08:00;;;;;;;;;0.00;0.00;;;;;20.27;100.00;100722.53;2072194;28;46493;-62
2024/04/07 03:09:01;;;;;;;;;0.00;0.00;;;;;20.26;100.00;100732.44;2056069;28;46918;-62
2024/04/07 03:10:02;;;;;;;;;0.33;0.33;;;;;20.25;100.00;100717.25;2056341;28;46043;-63
2024/04/07 03:11:04;;;;;;;;;0.00;0.00;;;;;20.23;100.00;100721.84;2080694;28;46586;-62
2024/04/07 03:12:04;;;;;;;;;0.00;0.00;;;;;20.20;100.00;100719.38;2079558;28;46473;-63
2024/04/07 03:13:04;;;;;;;;;0.00;0.00;;;;;20.22;100.00;100725.53;2055107;28;46288;-63
2024/04/07 03:14:05;;;;;;;;;0.00;0.00;;;;;20.22;100.00;100732.72;2056334;28;47000;-63
2024/04/07 03:15:07;;;;;;;;;0.00;0.00;;;;;20.24;100.00;100731.69;2071878;28;46778;-62
2024/04/07 03:16:13;;;;;;;;;0.25;0.00;;;;;20.24;100.00;100731.69;2072410;28;46707;-62
2024/04/07 03:17:13;;;;;;;;;0.00;0.00;;;;;20.23;100.00;100743.41;2079072;28;46914;-63
2024/04/07 03:18:14;;;;;;;;;0.00;0.00;;;;;20.21;100.00;100742.66;2077854;28;46374;-61
2024/04/07 03:19:14;;;;;;;;;0.00;0.00;;;;;20.19;100.00;100747.25;2080564;28;46525;-63
2024/04/07 03:20:14;;;;;;;;;0.00;0.00;;;;;20.17;100.00;100734.81;2079609;28;46570;-62
2024/04/07 03:21:15;;;;;;;;;0.00;0.00;;;;;20.14;100.00;100733.19;2079115;28;46538;-62
2024/04/07 03:22:15;;;;;;;;;0.00;0.00;;;;;20.16;100.00;100738.47;2073426;28;46392;-63
2024/04/07 03:23:16;;;;;;;;;1.00;0.00;;;;;20.14;100.00;100735.88;2076000;28;46221;-61
2024/04/07 03:24:16;;;;;;;;;0.00;0.00;;;;;20.14;100.00;100743.09;2075937;28;47077;-62
2024/04/07 03:25:16;;;;;;;;;0.00;0.00;;;;;20.09;100.00;100739.84;2072972;28;45071;-63
2024/04/07 03:26:17;;;;;;;;;0.00;0.00;;;;;20.12;100.00;100736.94;2073287;28;46264;-63
2024/04/07 03:27:17;;;;;;;;;0.00;0.00;;;;;20.12;100.00;100735.13;2080434;28;46573;-62
2024/04/07 03:28:17;;;;;;;;;0.00;0.00;;;;;20.13;100.00;100735.97;2081972;28;46277;-62
2024/04/07 03:29:18;;;;;;;;;0.00;0.00;;;;;20.11;100.00;100736.09;2079793;28;45064;-62
2024/04/07 03:30:18;;;;;;;;;0.33;0.00;;;;;20.14;100.00;100733.19;2068975;28;46310;-63
2024/04/07 03:31:18;;;;;;;;;0.00;0.00;;;;;20.15;100.00;100737.63;2071009;28;46362;-62
2024/04/07 03:32:19;;;;;;;;;0.00;0.00;;;;;20.17;100.00;100741.09;2080503;28;46275;-63
2024/04/07 03:33:19;;;;;;;;;0.00;0.00;;;;;20.15;100.00;100736.75;2080830;28;46503;-62
2024/04/07 03:34:23;;;;;;;;;0.00;0.00;;;;;20.17;100.00;100743.78;2078442;28;46344;-63
2024/04/07 03:35:24;;;;;;;;;0.00;0.00;;;;;20.18;100.00;100744.63;2079627;28;46370;-63
2024/04/07 03:36:24;;;;;;;;;0.00;0.00;;;;;20.18;100.00;100744.63;2080615;28;46434;-63
2024/04/07 03:37:24;;;;;;;;;0.00;0.00;;;;;20.17;100.00;100741.09;2080264;28;46143;-63
2024/04/07 03:38:25;;;;;;;;;0.00;0.00;;;;;20.18;100.00;100745.50;2088582;28;45883;-63
2024/04/07 03:39:25;;;;;;;;;0.33;0.33;;;;;20.17;100.00;100729.44;2082407;28;46416;-64
2024/04/07 03:40:26;;;;;;;;;0.00;0.00;;;;;20.20;100.00;100735.53;2080960;28;46620;-63
2024/04/07 03:41:26;;;;;;;;;0.00;0.00;;;;;20.22;100.00;100735.44;2080758;28;47316;-63
2024/04/07 03:42:27;;;;;;;;;0.00;0.00;;;;;20.24;100.00;100731.69;2080145;28;46672;-64
2024/04/07 03:43:27;;;;;;;;;0.00;0.00;;;;;20.26;100.00;100739.66;2080701;28;46203;-64
2024/04/07 03:44:28;;;;;;;;;0.00;0.00;;;;;20.27;100.00;100736.88;2082821;28;45819;-62
2024/04/07 03:45:28;;;;;;;;;0.00;0.00;;;;;20.28;100.00;100741.28;2080537;28;46381;-63
2024/04/07 03:46:29;;;;;;;;;0.00;0.00;;;;;20.29;100.00;100736.78;2080430;28;46507;-64
2024/04/07 03:47:29;;;;;;;;;0.00;0.00;;;;;20.31;100.00;100739.38;2080446;28;46419;-63
2024/04/07 03:48:32;;;;;;;;;0.00;0.00;;;;;20.30;100.00;100741.19;2080479;28;45145;-63
2024/04/07 03:49:33;;;;;;;;;0.25;0.25;;;;;20.31;100.00;100734.84;2080765;28;46942;-64
2024/04/07 03:50:33;;;;;;;;;1.00;0.00;;;;;20.31;100.00;100740.22;2080549;28;45952;-63
2024/04/07 03:51:33;;;;;;;;;0.00;0.00;;;;;20.32;100.00;100741.97;2079337;28;47030;-62
2024/04/07 03:52:34;;;;;;;;;0.00;0.00;;;;;20.33;100.00;100751.81;2062518;28;46451;-64
2024/04/07 03:53:34;;;;;;;;;1.00;0.00;;;;;20.33;100.00;100749.13;2063213;28;46844;-63
2024/04/07 03:54:35;;;;;;;;;0.00;0.00;;;;;20.36;100.00;100750.75;2080974;28;46517;-63
2024/04/07 03:55:35;;;;;;;;;0.00;0.00;;;;;20.36;100.00;100748.06;2080943;28;46342;-64
2024/04/07 03:56:36;;;;;;;;;1.00;0.00;;;;;20.36;100.00;100758.84;2080688;28;46712;-64
2024/04/07 03:57:36;;;;;;;;;0.00;0.00;;;;;20.35;100.00;100752.56;2080183;28;46218;-64
2024/04/07 03:58:36;;;;;;;;;0.00;0.00;;;;;20.36;100.00;100750.75;2067025;28;46457;-63
2024/04/07 03:59:37;;;;;;;;;0.00;0.00;;;;;20.36;100.00;100753.44;2073045;28;46384;-63
2024/04/07 04:00:38;;;;;;;;;0.00;0.00;;;;;20.35;100.00;100751.72;2081317;28;46727;-63
2024/04/07 04:01:39;;;;;;;;;0.00;0.00;;;;;20.36;100.00;100757.00;2080394;28;46627;-62
2024/04/07 04:02:40;;;;;;;;;0.00;0.00;;;;;20.37;100.00;100758.75;2068351;28;46317;-63
2024/04/07 04:03:41;;;;;;;;;0.00;0.00;;;;;20.38;100.00;100765.00;2063122;28;46286;-62
2024/04/07 04:04:41;;;;;;;;;0.00;0.00;;;;;20.37;100.00;100769.53;2071390;28;45593;-63
2024/04/07 04:05:41;;;;;;;;;0.33;0.00;;;;;20.39;100.00;100770.28;2078608;28;46322;-64
2024/04/07 04:06:42;;;;;;;;;0.00;0.00;;;;;20.39;100.00;100770.28;2054814;28;46927;-62
2024/04/07 04:07:42;;;;;;;;;0.00;0.00;;;;;20.40;100.00;100779.25;2054850;28;46402;-64
2024/04/07 04:08:44;;;;;;;;;0.00;0.00;;;;;20.38;100.00;100778.47;2076508;28;45705;-64
2024/04/07 04:09:45;;;;;;;;;0.50;0.00;;;;;20.34;100.00;100782.31;2080490;28;45648;-65
2024/04/07 04:10:45;;;;;;;;;0.00;0.00;;;;;20.31;100.00;100780.66;2081336;28;46144;-64
2024/04/07 04:11:46;;;;;;;;;0.00;0.00;;;;;20.34;100.00;100791.28;2080430;28;46985;-64
2024/04/07 04:12:46;;;;;;;;;0.00;0.00;;;;;20.33;100.00;100786.84;2079530;28;46560;-64
2024/04/07 04:13:49;;;;;;;;;0.00;0.00;;;;;20.34;100.00;100793.97;2081139;28;46144;-65
2024/04/07 04:14:50;;;;;;;;;0.00;0.00;;;;;20.33;100.00;100783.25;2078752;28;46261;-63
2024/04/07 04:15:51;;;;;;;;;0.00;0.00;;;;;20.33;100.00;100781.47;2078161;28;45728;-62
2024/04/07 04:16:51;;;;;;;;;0.00;0.00;;;;;20.27;100.00;100777.28;2080710;28;46344;-64
2024/04/07 04:17:51;;;;;;;;;0.00;0.00;;;;;20.31;100.00;100785.19;2080077;28;46807;-63
2024/04/07 04:18:54;;;;;;;;;0.00;0.00;;;;;20.28;100.00;100781.72;2071630;28;46270;-63
2024/04/07 04:19:55;;;;;;;;;0.00;0.00;;;;;20.30;100.00;100789.72;2072111;28;46305;-62
2024/04/07 04:20:55;;;;;;;;;0.00;0.00;;;;;20.28;100.00;100795.19;2080467;28;45418;-62
2024/04/07 04:21:55;;;;;;;;;0.00;0.00;;;;;20.28;100.00;100795.19;2080467;28;46094;-63
2024/04/07 04:22:56;;;;;;;;;1.00;0.00;;;;;20.28;100.00;100783.56;2080129;28;45722;-63
2024/04/07 04:23:56;;;;;;;;;0.00;0.00;;;;;20.27;100.00;100779.13;2081008;28;46341;-64
2024/04/07 04:24:57;;;;;;;;;0.33;0.00;;;;;20.22;100.00;100783.94;2080313;28;46320;-63
2024/04/07 04:25:57;;;;;;;;;0.00;0.00;;;;;20.18;100.00;100774.28;2080850;28;46221;-63
2024/04/07 04:26:57;;;;;;;;;0.00;0.00;;;;;20.22;100.00;100779.41;2080454;28;46457;-64
2024/04/07 04:27:58;;;;;;;;;0.00;0.00;;;;;20.22;100.00;100778.53;2080436;28;46224;-63
2024/04/07 04:28:58;;;;;;;;;0.00;0.00;;;;;20.22;100.00;100789.31;2080540;28;46027;-63
2024/04/07 04:29:58;;;;;;;;;0.00;0.00;;;;;20.21;100.00;100785.75;2080338;28;46705;-63
2024/04/07 04:31:00;;;;;;;;;0.00;0.00;;;;;20.22;100.00;100790.19;2082614;28;46637;-63
2024/04/07 04:32:03;;;;;;;;;0.00;0.00;;;;;20.21;100.00;100793.84;2079286;28;47346;-63
2024/04/07 04:33:04;;;;;;;;;0.00;0.00;;;;;20.20;100.00;100793.91;2076298;28;46235;-65
2024/04/07 04:34:04;;;;;;;;;0.00;0.00;;;;;20.18;100.00;100791.31;2079466;28;45696;-65
2024/04/07 04:35:05;;;;;;;;;0.00;0.00;;;;;20.18;100.00;100791.31;2080415;28;46483;-63
2024/04/07 04:36:13;;;;;;;;;0.00;0.00;;;;;20.21;100.00;100792.97;2080018;28;46719;-63
2024/04/07 04:37:13;;;;;;;;;0.00;0.00;;;;;20.20;100.00;100799.31;2079797;28;46543;-66
2024/04/07 04:38:13;;;;;;;;;0.00;0.00;;;;;20.19;100.00;100803.81;2079542;28;46943;-67
2024/04/07 04:39:14;;;;;;;;;0.33;0.33;;;;;20.19;100.00;100797.56;2080005;28;46671;-65
2024/04/07 04:40:14;;;;;;;;;0.67;0.00;;;;;20.19;100.00;100794.88;2080063;28;46154;-65
2024/04/07 04:41:15;;;;;;;;;0.67;0.00;;;;;20.17;100.00;100794.97;2080671;28;46740;-66
2024/04/07 04:42:15;;;;;;;;;0.00;0.00;;;;;20.18;100.00;100787.75;2080419;28;46231;-66